Sunizona, Arizona
Current Conditions -  °F | °C
As of 10:56 AM on Saturday 25 Oct 2014 (Local Time) from KDUG Reporting Station
Clear Clear  
Wind Chill: 80°   Ceiling: Unl
Heat Index: 80°   Visibility: 10mi
Dew Point: 46°   Wind: 3mph
Humidity: 30%   Direction: NA
Pressure: 30.23"   Gusts: NA
Location:  31.9924°N, 109.696°W
Report Text: KDUG 251756Z AUTO VRB03KT 10SM CLR 27/08 A3023 RMK AO2 SLP182 T02670078 10267 20083 58004
Loading
Personal Weather Stations






























Interactive Weather Map
Tropical Storm Tracking
New forecast layout! Learn more

10-Day Weather Forecast

Advertisements
Track Severe Weather on mobile